Time;durP1;ratioP1;P1;durP2;ratioP2;P2;SDS_P1;SDS_P2;PMS_P1;PMS_P2;Temp;Humidity;BMP_temperature;BMP_pressure;BME280_temperature;BME280_humidity;BME280_pressure;Samples;Min_cycle;Max_cycle;Signal;HPM_P1;HPM_P2
2024/01/06 00:01:17;;;;;;;8.73;5.00;;;;;;;;;;4938159;29;20078;-83
2024/01/06 00:03:43;;;;;;;7.68;4.10;;;;;;;;;;4945338;29;20569;-83
2024/01/06 00:06:12;;;;;;;6.63;3.15;;;;;;;;;;4946883;29;20581;-84
2024/01/06 00:08:38;;;;;;;14.70;4.15;;;;;;;;;;4918442;29;20402;-83
2024/01/06 00:11:04;;;;;;;5.15;3.15;;;;;;;;;;4918494;29;20051;-83
2024/01/06 00:13:30;;;;;;;9.82;3.70;;;;;;;;;;4927672;29;20048;-83
2024/01/06 00:15:56;;;;;;;6.35;4.65;;;;;;;;;;4917212;29;20050;-83
2024/01/06 00:18:22;;;;;;;7.25;3.10;;;;;;;;;;4938257;29;20048;-83
2024/01/06 00:20:54;;;;;;;11.43;5.10;;;;;;;;;;4915767;29;20052;-84
2024/01/06 00:23:20;;;;;;;6.95;4.63;;;;;;;;;;4930234;29;20095;-83
2024/01/06 00:25:46;;;;;;;6.30;3.47;;;;;;;;;;4946891;29;20051;-83
2024/01/06 00:28:12;;;;;;;7.82;5.03;;;;;;;;;;4915909;29;20036;-83
2024/01/06 00:30:38;;;;;;;4.75;2.50;;;;;;;;;;4941485;29;20058;-83
2024/01/06 00:33:04;;;;;;;14.63;4.97;;;;;;;;;;4943408;29;20059;-83
2024/01/06 00:35:30;;;;;;;6.05;4.13;;;;;;;;;;4934871;29;20068;-83
2024/01/06 00:37:57;;;;;;;9.73;4.90;;;;;;;;;;4923062;29;20160;-84
2024/01/06 00:40:23;;;;;;;6.45;4.63;;;;;;;;;;4933683;29;20490;-83
2024/01/06 00:42:49;;;;;;;11.10;4.90;;;;;;;;;;4926490;29;20402;-84
2024/01/06 00:45:15;;;;;;;8.30;4.57;;;;;;;;;;4937340;29;20052;-83
2024/01/06 00:47:41;;;;;;;5.32;3.40;;;;;;;;;;4923409;29;20035;-83
2024/01/06 00:50:07;;;;;;;6.40;3.58;;;;;;;;;;4937602;29;20056;-83
2024/01/06 00:52:33;;;;;;;8.93;5.05;;;;;;;;;;4925496;29;20052;-83
2024/01/06 00:54:59;;;;;;;7.55;3.92;;;;;;;;;;4929526;29;20126;-83
2024/01/06 00:57:25;;;;;;;4.75;3.22;;;;;;;;;;4947868;29;20040;-83
2024/01/06 00:59:56;;;;;;;8.45;3.45;;;;;;;;;;4938428;29;20136;-83
2024/01/06 01:02:29;;;;;;;7.65;3.88;;;;;;;;;;4928869;29;20047;-84
2024/01/06 01:04:57;;;;;;;4.47;2.90;;;;;;;;;;4935226;29;20039;-83
2024/01/06 01:07:27;;;;;;;4.80;3.00;;;;;;;;;;4953986;28;20043;-83
2024/01/06 01:09:53;;;;;;;6.82;3.38;;;;;;;;;;4929415;29;20059;-83
2024/01/06 01:12:21;;;;;;;3.50;2.03;;;;;;;;;;4924337;29;20062;-84
2024/01/06 01:14:50;;;;;;;9.13;2.38;;;;;;;;;;4942387;29;20040;-83
2024/01/06 01:17:19;;;;;;;5.82;2.50;;;;;;;;;;4923300;29;20051;-83
2024/01/06 01:19:53;;;;;;;9.90;3.30;;;;;;;;;;4925524;29;20050;-83
2024/01/06 01:22:19;;;;;;;5.55;3.53;;;;;;;;;;4933185;29;20142;-84
2024/01/06 01:24:52;;;;;;;12.75;4.32;;;;;;;;;;4921986;29;20095;-83
2024/01/06 01:27:19;;;;;;;7.63;4.03;;;;;;;;;;4930789;29;20151;-83
2024/01/06 01:29:45;;;;;;;12.60;4.47;;;;;;;;;;4934280;29;20122;-84
2024/01/06 01:32:11;;;;;;;7.38;3.00;;;;;;;;;;4931461;29;20130;-84
2024/01/06 01:34:42;;;;;;;5.60;3.38;;;;;;;;;;4928438;29;20434;-84
2024/01/06 01:37:08;;;;;;;11.13;3.53;;;;;;;;;;4928807;29;20075;-84
2024/01/06 01:39:34;;;;;;;9.77;2.60;;;;;;;;;;4937730;29;20342;-84
2024/01/06 01:42:03;;;;;;;5.15;3.42;;;;;;;;;;4945852;29;20038;-84
2024/01/06 01:44:32;;;;;;;7.53;2.30;;;;;;;;;;4939601;29;20044;-84
2024/01/06 01:46:58;;;;;;;5.60;3.67;;;;;;;;;;4922527;29;20569;-83
2024/01/06 01:49:25;;;;;;;4.97;2.72;;;;;;;;;;4919377;29;20062;-84
2024/01/06 01:51:51;;;;;;;;;;;;;;;;;;4925348;29;20043;-83
2024/01/06 01:54:20;;;;;;;7.82;2.65;;;;;;;;;;4954506;29;19918;-84
2024/01/06 01:56:46;;;;;;;3.35;1.90;;;;;;;;;;4922669;29;20107;-83
2024/01/06 01:59:13;;;;;;;4.40;1.52;;;;;;;;;;4918337;29;20075;-82
2024/01/06 02:01:42;;;;;;;5.18;1.58;;;;;;;;;;4938657;29;20038;-83
2024/01/06 02:04:09;;;;;;;4.38;1.63;;;;;;;;;;4935457;29;20082;-83
2024/01/06 02:06:35;;;;;;;5.53;1.90;;;;;;;;;;4947209;29;20036;-83
2024/01/06 02:09:01;;;;;;;2.05;1.02;;;;;;;;;;4950251;29;20109;-83
2024/01/06 02:11:27;;;;;;;6.07;1.58;;;;;;;;;;4929534;29;20051;-83
2024/01/06 02:13:53;;;;;;;2.40;1.48;;;;;;;;;;4936808;29;20035;-83
2024/01/06 02:16:19;;;;;;;1.25;0.77;;;;;;;;;;4941814;29;20048;-83
2024/01/06 02:18:46;;;;;;;1.45;0.82;;;;;;;;;;4935115;29;20104;-83
2024/01/06 02:21:12;;;;;;;1.92;1.10;;;;;;;;;;4926004;29;20073;-83
2024/01/06 02:23:38;;;;;;;5.97;2.42;;;;;;;;;;4923299;29;20082;-83
2024/01/06 02:26:04;;;;;;;2.45;1.42;;;;;;;;;;4921130;29;20066;-82
2024/01/06 02:28:30;;;;;;;3.42;1.30;;;;;;;;;;4918059;29;20039;-83
2024/01/06 02:30:56;;;;;;;3.00;1.35;;;;;;;;;;4919712;29;20058;-83
2024/01/06 02:33:24;;;;;;;1.35;0.55;;;;;;;;;;4920912;29;20733;-83
2024/01/06 02:35:50;;;;;;;3.95;2.25;;;;;;;;;;4934306;29;20036;-82
2024/01/06 02:38:23;;;;;;;1.33;0.90;;;;;;;;;;4951554;29;20043;-83
2024/01/06 02:40:49;;;;;;;4.57;2.13;;;;;;;;;;4947963;29;20043;-84
2024/01/06 02:43:15;;;;;;;5.55;1.80;;;;;;;;;;4924435;29;20046;-83
2024/01/06 02:45:41;;;;;;;5.40;1.65;;;;;;;;;;4918379;29;20082;-83
2024/01/06 02:48:10;;;;;;;3.47;1.98;;;;;;;;;;4935149;29;20042;-84
2024/01/06 02:50:39;;;;;;;4.20;2.20;;;;;;;;;;4953536;29;20491;-84
2024/01/06 02:53:12;;;;;;;4.28;2.80;;;;;;;;;;4923526;29;20079;-84
2024/01/06 02:55:46;;;;;;;3.67;2.20;;;;;;;;;;4917657;29;20071;-84
2024/01/06 02:58:20;;;;;;;3.33;1.52;;;;;;;;;;4923287;29;20136;-84
2024/01/06 03:00:46;;;;;;;3.67;1.80;;;;;;;;;;4928152;29;20392;-83
2024/01/06 03:03:12;;;;;;;4.93;2.10;;;;;;;;;;4936415;29;20048;-83
2024/01/06 03:05:38;;;;;;;2.70;2.05;;;;;;;;;;4934082;29;20050;-82
2024/01/06 03:08:04;;;;;;;5.43;1.95;;;;;;;;;;4946233;29;20051;-83
2024/01/06 03:10:30;;;;;;;3.78;2.20;;;;;;;;;;4941827;29;20046;-82
2024/01/06 03:12:56;;;;;;;2.95;1.20;;;;;;;;;;4933970;29;20055;-83
2024/01/06 03:15:23;;;;;;;3.67;1.50;;;;;;;;;;4931776;29;20036;-83
2024/01/06 03:17:49;;;;;;;2.35;1.23;;;;;;;;;;4927318;29;20099;-83
2024/01/06 03:20:15;;;;;;;2.88;1.88;;;;;;;;;;4941663;29;20039;-83
2024/01/06 03:22:41;;;;;;;3.70;1.83;;;;;;;;;;4920244;29;20048;-83
2024/01/06 03:25:07;;;;;;;1.48;1.15;;;;;;;;;;4933467;28;20043;-83
2024/01/06 03:27:33;;;;;;;2.05;1.27;;;;;;;;;;4920476;29;20060;-83
2024/01/06 03:29:59;;;;;;;1.10;0.55;;;;;;;;;;4934642;29;22157;-83
2024/01/06 03:32:25;;;;;;;0.77;0.38;;;;;;;;;;4924249;29;20050;-83
2024/01/06 03:34:51;;;;;;;1.70;0.90;;;;;;;;;;4934894;29;20046;-83
2024/01/06 03:37:22;;;;;;;1.75;0.60;;;;;;;;;;4921531;29;20394;-83
2024/01/06 03:39:51;;;;;;;0.93;0.45;;;;;;;;;;4928585;29;20080;-83
2024/01/06 03:42:17;;;;;;;4.47;1.08;;;;;;;;;;4933044;29;20497;-83
2024/01/06 03:44:43;;;;;;;0.95;0.52;;;;;;;;;;4924887;29;20046;-83
2024/01/06 03:47:09;;;;;;;2.97;0.95;;;;;;;;;;4923027;29;20051;-83
2024/01/06 03:49:35;;;;;;;3.28;1.25;;;;;;;;;;4931790;29;20067;-82
2024/01/06 03:52:01;;;;;;;2.35;1.20;;;;;;;;;;4948252;29;20117;-83
2024/01/06 03:54:27;;;;;;;4.30;1.52;;;;;;;;;;4930831;29;20047;-82
2024/01/06 03:56:53;;;;;;;4.07;0.85;;;;;;;;;;4939957;29;20047;-83
2024/01/06 03:59:19;;;;;;;0.82;0.75;;;;;;;;;;4920095;29;20035;-82
2024/01/06 04:01:45;;;;;;;1.05;0.82;;;;;;;;;;4925466;29;20049;-83
2024/01/06 04:04:11;;;;;;;2.55;1.42;;;;;;;;;;4936086;29;20059;-83
2024/01/06 04:06:37;;;;;;;1.75;0.98;;;;;;;;;;4921905;29;20050;-83
2024/01/06 04:09:03;;;;;;;1.27;0.85;;;;;;;;;;4934797;29;20414;-83
2024/01/06 04:11:29;;;;;;;5.55;1.65;;;;;;;;;;4937661;29;20047;-82
2024/01/06 04:13:55;;;;;;;1.70;0.80;;;;;;;;;;4933763;29;20373;-83
2024/01/06 04:16:21;;;;;;;1.48;1.23;;;;;;;;;;4944896;29;20050;-83
2024/01/06 04:18:50;;;;;;;5.13;2.00;;;;;;;;;;4948535;29;20150;-83
2024/01/06 04:21:16;;;;;;;1.70;0.98;;;;;;;;;;4942724;29;20044;-83
2024/01/06 04:23:42;;;;;;;2.08;1.73;;;;;;;;;;4942751;29;20055;-83
2024/01/06 04:26:08;;;;;;;0.90;0.68;;;;;;;;;;4943352;29;20047;-83
2024/01/06 04:28:34;;;;;;;13.90;1.05;;;;;;;;;;4933191;29;20048;-83
2024/01/06 04:31:00;;;;;;;2.97;1.05;;;;;;;;;;4923947;29;20762;-83
2024/01/06 04:33:29;;;;;;;3.47;1.58;;;;;;;;;;4930188;29;20044;-83
2024/01/06 04:35:57;;;;;;;1.60;0.68;;;;;;;;;;4921316;29;20474;-83
2024/01/06 04:38:23;;;;;;;0.90;0.35;;;;;;;;;;4925057;29;20052;-82
2024/01/06 04:40:49;;;;;;;0.47;0.10;;;;;;;;;;4938078;29;20126;-83
2024/01/06 04:43:15;;;;;;;0.43;0.35;;;;;;;;;;4924452;29;20048;-82
2024/01/06 04:45:42;;;;;;;0.70;0.22;;;;;;;;;;4918947;29;20047;-83
2024/01/06 04:48:10;;;;;;;1.13;0.30;;;;;;;;;;4932579;29;20124;-83
2024/01/06 04:50:36;;;;;;;0.35;0.22;;;;;;;;;;4934283;29;20461;-83
2024/01/06 04:53:02;;;;;;;0.52;0.30;;;;;;;;;;4947482;29;20086;-83
2024/01/06 04:55:28;;;;;;;0.98;0.63;;;;;;;;;;4933074;29;20044;-83
2024/01/06 04:57:54;;;;;;;0.13;0.10;;;;;;;;;;4931281;29;20099;-82
2024/01/06 05:00:20;;;;;;;0.00;0.00;;;;;;;;;;4934577;29;20043;-82
2024/01/06 05:02:46;;;;;;;0.10;0.10;;;;;;;;;;4944567;29;20047;-82
2024/01/06 05:05:12;;;;;;;0.10;0.10;;;;;;;;;;4937876;29;20040;-82
2024/01/06 05:07:38;;;;;;;0.38;0.10;;;;;;;;;;4920685;29;20047;-83
2024/01/06 05:10:05;;;;;;;0.57;0.00;;;;;;;;;;4925277;29;20565;-83
2024/01/06 05:12:31;;;;;;;0.10;0.10;;;;;;;;;;4939647;29;20532;-82
2024/01/06 05:14:57;;;;;;;0.30;0.10;;;;;;;;;;4930210;29;20098;-83
2024/01/06 05:17:23;;;;;;;0.80;0.20;;;;;;;;;;4927075;29;20143;-83
2024/01/06 05:19:49;;;;;;;1.02;0.15;;;;;;;;;;4936146;29;20036;-82
2024/01/06 05:22:15;;;;;;;0.90;0.50;;;;;;;;;;4930447;29;20102;-83
2024/01/06 05:24:41;;;;;;;0.30;0.20;;;;;;;;;;4934363;29;20050;-83
2024/01/06 05:27:07;;;;;;;0.15;0.03;;;;;;;;;;4928368;29;20047;-83
2024/01/06 05:29:33;;;;;;;0.52;0.40;;;;;;;;;;4921197;29;20453;-83
2024/01/06 05:31:59;;;;;;;1.33;0.15;;;;;;;;;;4924818;29;20067;-83
2024/01/06 05:34:25;;;;;;;0.10;0.03;;;;;;;;;;4946352;29;20118;-83
2024/01/06 05:36:51;;;;;;;0.32;0.20;;;;;;;;;;4940959;29;20371;-83
2024/01/06 05:39:17;;;;;;;0.30;0.10;;;;;;;;;;4936470;29;20044;-83
2024/01/06 05:41:43;;;;;;;1.88;0.32;;;;;;;;;;4925223;29;20047;-83
2024/01/06 05:44:09;;;;;;;0.98;0.15;;;;;;;;;;4926452;29;20062;-83
2024/01/06 05:46:35;;;;;;;1.17;0.40;;;;;;;;;;4952787;29;20067;-83
2024/01/06 05:49:01;;;;;;;0.22;0.17;;;;;;;;;;4942507;29;20051;-83
2024/01/06 05:51:27;;;;;;;0.10;0.10;;;;;;;;;;4938213;29;21304;-82
2024/01/06 05:53:54;;;;;;;0.60;0.28;;;;;;;;;;4923386;29;20095;-82
2024/01/06 05:56:27;;;;;;;0.10;0.03;;;;;;;;;;4938447;29;20478;-83
2024/01/06 05:58:53;;;;;;;0.10;0.00;;;;;;;;;;4951642;29;20054;-83
2024/01/06 06:01:20;;;;;;;0.08;0.08;;;;;;;;;;4924308;29;20050;-82
2024/01/06 06:03:46;;;;;;;0.20;0.10;;;;;;;;;;4946886;29;20367;-83
2024/01/06 06:06:13;;;;;;;0.15;0.00;;;;;;;;;;4939037;29;20128;-83
2024/01/06 06:08:40;;;;;;;0.60;0.03;;;;;;;;;;4936370;29;20090;-83
2024/01/06 06:11:10;;;;;;;0.30;0.00;;;;;;;;;;4919995;29;20039;-83
2024/01/06 06:13:37;;;;;;;0.00;0.00;;;;;;;;;;4928271;29;20043;-83
2024/01/06 06:16:04;;;;;;;0.20;0.10;;;;;;;;;;4944226;29;20504;-83
2024/01/06 06:18:30;;;;;;;0.00;0.00;;;;;;;;;;4936759;29;20054;-83
2024/01/06 06:20:56;;;;;;;2.15;0.20;;;;;;;;;;4929739;29;20043;-82
2024/01/06 06:23:22;;;;;;;0.10;0.10;;;;;;;;;;4929187;29;20054;-83
2024/01/06 06:25:51;;;;;;;0.65;0.30;;;;;;;;;;4940420;29;20115;-82
2024/01/06 06:28:20;;;;;;;0.35;0.15;;;;;;;;;;4942590;28;20051;-83
2024/01/06 06:30:46;;;;;;;0.57;0.15;;;;;;;;;;4930654;29;20062;-83
2024/01/06 06:33:12;;;;;;;0.75;0.30;;;;;;;;;;4936619;29;20502;-83
2024/01/06 06:35:38;;;;;;;0.60;0.28;;;;;;;;;;4945749;29;20031;-82
2024/01/06 06:38:04;;;;;;;1.08;0.38;;;;;;;;;;4939671;29;20043;-83
2024/01/06 06:40:30;;;;;;;0.40;0.20;;;;;;;;;;4929696;29;20518;-83
2024/01/06 06:42:56;;;;;;;0.57;0.20;;;;;;;;;;4922455;29;20079;-83
2024/01/06 06:45:22;;;;;;;0.50;0.25;;;;;;;;;;4935733;29;20090;-83
2024/01/06 06:47:51;;;;;;;1.65;0.73;;;;;;;;;;4952052;29;20050;-82
2024/01/06 06:50:20;;;;;;;1.08;0.32;;;;;;;;;;4923938;29;20071;-83
2024/01/06 06:52:46;;;;;;;0.22;0.20;;;;;;;;;;4934107;29;20047;-82
2024/01/06 06:55:12;;;;;;;2.40;0.32;;;;;;;;;;4926291;29;20043;-82
2024/01/06 06:57:39;;;;;;;0.65;0.30;;;;;;;;;;4924564;29;20050;-82
2024/01/06 07:00:07;;;;;;;0.25;0.25;;;;;;;;;;4920250;29;20059;-83
2024/01/06 07:02:33;;;;;;;1.27;0.63;;;;;;;;;;4931281;29;20059;-83
2024/01/06 07:04:59;;;;;;;0.65;0.30;;;;;;;;;;4937339;29;20035;-82
2024/01/06 07:07:25;;;;;;;0.80;0.22;;;;;;;;;;4936609;29;20047;-82
2024/01/06 07:09:54;;;;;;;0.68;0.20;;;;;;;;;;4947028;29;20050;-82
2024/01/06 07:12:20;;;;;;;0.03;0.00;;;;;;;;;;4948747;29;20039;-81
2024/01/06 07:14:46;;;;;;;0.20;0.20;;;;;;;;;;4935644;29;20067;-83
2024/01/06 07:17:12;;;;;;;0.82;0.28;;;;;;;;;;4924751;29;20039;-82
2024/01/06 07:19:39;;;;;;;0.17;0.05;;;;;;;;;;4938782;29;20368;-84
2024/01/06 07:22:05;;;;;;;0.15;0.00;;;;;;;;;;4920945;29;20040;-82
2024/01/06 07:24:31;;;;;;;0.50;0.28;;;;;;;;;;4935979;29;20051;-82
2024/01/06 07:26:57;;;;;;;0.82;0.30;;;;;;;;;;4941001;29;20066;-83
2024/01/06 07:29:23;;;;;;;1.25;0.47;;;;;;;;;;4935356;29;20500;-82
2024/01/06 07:31:49;;;;;;;1.90;0.82;;;;;;;;;;4943925;29;20156;-83
2024/01/06 07:34:15;;;;;;;1.40;0.65;;;;;;;;;;4947264;29;20039;-83
2024/01/06 07:36:41;;;;;;;1.48;0.30;;;;;;;;;;4928287;29;20489;-84
2024/01/06 07:39:07;;;;;;;1.35;0.73;;;;;;;;;;4931923;29;20039;-83
2024/01/06 07:41:33;;;;;;;2.00;0.98;;;;;;;;;;4917638;29;20992;-83
2024/01/06 07:44:02;;;;;;;0.98;0.73;;;;;;;;;;4941861;29;20052;-83
2024/01/06 07:46:28;;;;;;;0.70;0.28;;;;;;;;;;4945828;29;20123;-80
2024/01/06 07:48:54;;;;;;;0.60;0.47;;;;;;;;;;4946969;29;20795;-82
2024/01/06 07:51:20;;;;;;;1.00;0.40;;;;;;;;;;4921483;29;20069;-80
2024/01/06 07:53:46;;;;;;;1.33;0.60;;;;;;;;;;4935426;29;20055;-82
2024/01/06 07:56:12;;;;;;;1.02;0.52;;;;;;;;;;4933867;29;20474;-81
2024/01/06 07:58:38;;;;;;;5.20;0.88;;;;;;;;;;4943944;29;20122;-81
2024/01/06 08:01:04;;;;;;;1.10;0.68;;;;;;;;;;4945979;29;20798;-81
2024/01/06 08:03:30;;;;;;;0.38;0.32;;;;;;;;;;4926131;28;20525;-81
2024/01/06 08:05:56;;;;;;;2.08;1.55;;;;;;;;;;4941548;28;20425;-81
2024/01/06 08:08:22;;;;;;;1.70;0.95;;;;;;;;;;4941740;28;20066;-80
2024/01/06 08:10:48;;;;;;;0.47;0.30;;;;;;;;;;4946079;28;20074;-80
2024/01/06 08:13:16;;;;;;;3.85;0.40;;;;;;;;;;4937005;28;20083;-80
2024/01/06 08:15:42;;;;;;;1.38;0.20;;;;;;;;;;4941946;29;20078;-80
2024/01/06 08:18:08;;;;;;;2.28;0.10;;;;;;;;;;4938883;28;20047;-80
2024/01/06 08:20:34;;;;;;;1.08;0.25;;;;;;;;;;4920309;29;20521;-80
2024/01/06 08:23:00;;;;;;;0.32;0.25;;;;;;;;;;4934207;29;20079;-80
2024/01/06 08:25:26;;;;;;;0.60;0.20;;;;;;;;;;4940543;28;20422;-80
2024/01/06 08:27:52;;;;;;;1.50;0.77;;;;;;;;;;4946112;29;20051;-81
2024/01/06 08:30:19;;;;;;;1.08;0.30;;;;;;;;;;4942980;28;20043;-80
2024/01/06 08:32:45;;;;;;;1.02;0.55;;;;;;;;;;4935998;28;20043;-81
2024/01/06 08:35:11;;;;;;;0.47;0.22;;;;;;;;;;4941074;29;20035;-81
2024/01/06 08:37:37;;;;;;;0.55;0.30;;;;;;;;;;4947542;28;20155;-81
2024/01/06 08:40:04;;;;;;;0.03;0.00;;;;;;;;;;4934784;29;20473;-80
2024/01/06 08:42:30;;;;;;;1.10;0.43;;;;;;;;;;4934529;28;20048;-80
2024/01/06 08:44:56;;;;;;;1.05;0.45;;;;;;;;;;4944995;28;20043;-81
2024/01/06 08:47:22;;;;;;;0.90;0.25;;;;;;;;;;4921923;29;20031;-81
2024/01/06 08:49:48;;;;;;;1.08;0.45;;;;;;;;;;4941487;29;20051;-81
2024/01/06 08:52:14;;;;;;;;;;;;;;;;;;4949437;28;20050;-80
2024/01/06 08:54:40;;;;;;;0.63;0.32;;;;;;;;;;4940001;28;19920;-79
2024/01/06 08:57:06;;;;;;;0.45;0.28;;;;;;;;;;4942938;28;20043;-80
2024/01/06 08:59:32;;;;;;;1.23;0.65;;;;;;;;;;4936384;29;20044;-81
2024/01/06 09:01:58;;;;;;;0.85;0.30;;;;;;;;;;4938578;28;20478;-81
2024/01/06 09:04:24;;;;;;;0.15;0.10;;;;;;;;;;4940679;29;20086;-80
2024/01/06 09:06:51;;;;;;;2.03;0.80;;;;;;;;;;4929114;29;20039;-80
2024/01/06 09:09:20;;;;;;;0.85;0.52;;;;;;;;;;4935690;29;20588;-82
2024/01/06 09:11:46;;;;;;;1.45;0.80;;;;;;;;;;4941864;28;20047;-80
2024/01/06 09:14:12;;;;;;;1.35;0.50;;;;;;;;;;4944578;29;20434;-80
2024/01/06 09:16:38;;;;;;;1.27;0.85;;;;;;;;;;4927799;29;20375;-81
2024/01/06 09:19:04;;;;;;;1.60;0.52;;;;;;;;;;4920386;29;20870;-81
2024/01/06 09:21:30;;;;;;;2.08;0.47;;;;;;;;;;4936730;29;20114;-81
2024/01/06 09:23:56;;;;;;;1.17;0.30;;;;;;;;;;4945240;29;20126;-81
2024/01/06 09:26:22;;;;;;;0.93;0.20;;;;;;;;;;4927428;29;20401;-81
2024/01/06 09:28:48;;;;;;;0.45;0.17;;;;;;;;;;4929026;29;20071;-81
2024/01/06 09:31:14;;;;;;;0.90;0.40;;;;;;;;;;4945498;29;20047;-81
2024/01/06 09:33:40;;;;;;;2.17;0.85;;;;;;;;;;4930575;29;20438;-81
2024/01/06 09:36:06;;;;;;;0.98;0.50;;;;;;;;;;4927908;29;20063;-81
2024/01/06 09:38:33;;;;;;;3.53;1.80;;;;;;;;;;4926415;29;20055;-81
2024/01/06 09:40:59;;;;;;;4.82;0.90;;;;;;;;;;4920868;28;20611;-81
2024/01/06 09:43:26;;;;;;;0.63;0.28;;;;;;;;;;4921320;29;20054;-81
2024/01/06 09:46:12;;;;;;;0.93;0.38;;;;;;;;;;4928557;29;20515;-81
2024/01/06 09:48:41;;;;;;;1.83;0.95;;;;;;;;;;4911146;29;20473;-81
2024/01/06 09:51:10;;;;;;;3.40;0.73;;;;;;;;;;4930440;29;20039;-81
2024/01/06 09:53:36;;;;;;;1.30;0.77;;;;;;;;;;4921795;29;20055;-80
2024/01/06 09:56:03;;;;;;;7.68;1.58;;;;;;;;;;4923355;29;20418;-80
2024/01/06 09:58:32;;;;;;;3.65;1.35;;;;;;;;;;4935372;29;20039;-80
2024/01/06 10:00:59;;;;;;;8.93;1.05;;;;;;;;;;4933443;29;20043;-80
2024/01/06 10:03:26;;;;;;;3.72;0.52;;;;;;;;;;4922658;29;20047;-81
2024/01/06 10:05:52;;;;;;;0.95;0.22;;;;;;;;;;4931661;29;20047;-81
2024/01/06 10:08:19;;;;;;;2.50;0.85;;;;;;;;;;4937148;29;20043;-81
2024/01/06 10:10:45;;;;;;;;;;;;;;;;;;4918045;29;20043;-81
2024/01/06 10:13:11;;;;;;;0.10;0.10;;;;;;;;;;4919149;29;19934;-81
2024/01/06 10:15:37;;;;;;;1.45;0.20;;;;;;;;;;4926107;28;20688;-81
2024/01/06 10:18:03;;;;;;;0.93;0.20;;;;;;;;;;4919099;29;20612;-81
2024/01/06 10:20:29;;;;;;;0.35;0.10;;;;;;;;;;4933241;29;20039;-81
2024/01/06 10:22:55;;;;;;;0.15;0.10;;;;;;;;;;4920373;29;20094;-81
2024/01/06 10:25:24;;;;;;;0.38;0.25;;;;;;;;;;4932029;29;20296;-81
2024/01/06 10:27:54;;;;;;;0.20;0.13;;;;;;;;;;4918210;29;20078;-81
2024/01/06 10:30:20;;;;;;;0.45;0.20;;;;;;;;;;4929405;29;20035;-81
2024/01/06 10:32:46;;;;;;;0.40;0.10;;;;;;;;;;4933626;29;20063;-81
2024/01/06 10:35:12;;;;;;;1.75;0.57;;;;;;;;;;4928209;29;20237;-81
2024/01/06 10:37:38;;;;;;;0.95;0.15;;;;;;;;;;4934841;29;20524;-81
2024/01/06 10:40:08;;;;;;;0.35;0.10;;;;;;;;;;4920893;29;20039;-81
2024/01/06 10:42:34;;;;;;;0.10;0.00;;;;;;;;;;4917224;29;20051;-81
2024/01/06 10:45:01;;;;;;;0.82;0.20;;;;;;;;;;4931808;29;20043;-81
2024/01/06 10:47:30;;;;;;;0.03;0.00;;;;;;;;;;4932599;29;20055;-81
2024/01/06 10:49:58;;;;;;;1.00;0.32;;;;;;;;;;4924644;29;20035;-81
2024/01/06 10:52:24;;;;;;;0.20;0.10;;;;;;;;;;4926397;29;20066;-82
2024/01/06 10:54:51;;;;;;;0.20;0.15;;;;;;;;;;4928154;29;20130;-81
2024/01/06 10:57:18;;;;;;;0.20;0.10;;;;;;;;;;4935585;29;20075;-82
2024/01/06 10:59:45;;;;;;;0.22;0.10;;;;;;;;;;4944264;29;20070;-81
2024/01/06 11:02:12;;;;;;;0.00;0.00;;;;;;;;;;4931971;29;20044;-81
2024/01/06 11:04:40;;;;;;;2.65;1.45;;;;;;;;;;4920253;29;20549;-81
2024/01/06 11:07:06;;;;;;;0.10;0.10;;;;;;;;;;4927757;29;20072;-81
2024/01/06 11:09:35;;;;;;;0.63;0.20;;;;;;;;;;4916835;29;20509;-81
2024/01/06 11:12:01;;;;;;;0.00;0.00;;;;;;;;;;4922828;29;20043;-81
2024/01/06 11:14:28;;;;;;;0.00;0.00;;;;;;;;;;4918494;29;20075;-81
2024/01/06 11:16:55;;;;;;;1.00;0.40;;;;;;;;;;4933932;29;20031;-81
2024/01/06 11:19:37;;;;;;;0.00;0.00;;;;;;;;;;4927421;29;20039;-81
2024/01/06 11:22:39;;;;;;;1.58;0.40;;;;;;;;;;4926277;29;20435;-81
2024/01/06 11:25:09;;;;;;;0.10;0.10;;;;;;;;;;4851849;29;20053;-81
2024/01/06 11:27:36;;;;;;;0.10;0.10;;;;;;;;;;4910940;29;20130;-81
2024/01/06 11:30:06;;;;;;;0.08;0.08;;;;;;;;;;4925139;29;20114;-81
2024/01/06 11:32:38;;;;;;;0.70;0.60;;;;;;;;;;4930776;29;20395;-81
2024/01/06 11:35:14;;;;;;;0.10;0.00;;;;;;;;;;4933873;29;20027;-81
2024/01/06 11:37:39;;;;;;;0.25;0.17;;;;;;;;;;4933920;29;20047;-82
2024/01/06 11:40:09;;;;;;;0.10;0.10;;;;;;;;;;4924373;29;20406;-81
2024/01/06 11:45:36;;;;;;;0.45;0.20;;;;;;;;;;2398307;27;20514;-81
2024/01/06 11:55:18;;;;;;;1.40;0.10;;;;;;;;;;4835498;29;20578;-81
2024/01/06 11:58:06;;;;;;;;;;;;;;;;;;;;;
2024/01/06 12:01:11;;;;;;;;;;;;;;;;;;;;;
2024/01/06 12:19:41;;;;;;;;;;;;;;;;;;;;;
2024/01/06 12:25:17;;;;;;;;;;;;;;;;;;4784624;29;20122;-81
2024/01/06 12:27:43;;;;;;;;;;;;;;;;;;4784263;29;19924;-81
2024/01/06 12:47:56;;;;;;;;;;;;;;;;;;4894128;29;19931;-81
2024/01/06 12:50:38;;;;;;;;;;;;;;;;;;4870560;29;20294;-81
2024/01/06 12:56:27;;;;;;;;;;;;;;;;;;4850832;29;20083;-81
2024/01/06 13:02:45;;;;;;;;;;;;;;;;;;;;;
2024/01/06 13:15:05;;;;;;;0.20;0.20;;;;;;;;;;4856379;29;20456;-81
2024/01/06 13:21:14;;;;;;;2.35;0.20;;;;;;;;;;4794302;29;20042;-81
2024/01/06 13:42:10;;;;;;;;;;;;;;;;;;;;;
2024/01/06 14:40:08;;;;;;;;;;;;;;;;;;;;;
2024/01/06 14:42:57;;;;;;;0.63;0.10;;;;;;;;;;4881550;29;20048;-82
2024/01/06 14:55:16;;;;;;;0.00;0.00;;;;;;;;;;4910052;29;20058;-82
2024/01/06 14:58:39;;;;;;;0.32;0.15;;;;;;;;;;4886615;29;20051;-82
2024/01/06 15:29:00;;;;;;;;;;;;;;;;;;;;;
2024/01/06 15:50:08;;;;;;;0.60;0.35;;;;;;;;;;4905032;29;20059;-82
2024/01/06 16:19:08;;;;;;;1.55;0.20;;;;;;;;;;4906765;29;20039;-82
2024/01/06 16:21:33;;;;;;;;;;;;;;;;;;;;;
